createdAt,value
2018-08-16T00:02:02.492Z,5.80
2018-08-16T00:04:30.944Z,6.00
2018-08-16T00:06:59.333Z,5.20
2018-08-16T00:09:27.880Z,5.37
2018-08-16T00:11:56.619Z,4.97
2018-08-16T00:14:25.267Z,5.63
2018-08-16T00:16:53.833Z,5.40
2018-08-16T00:19:22.210Z,5.13
2018-08-16T00:21:50.790Z,5.37
2018-08-16T00:24:19.495Z,5.67
2018-08-16T00:26:47.966Z,5.60
2018-08-16T00:29:16.802Z,5.40
2018-08-16T00:31:45.315Z,5.47
2018-08-16T00:34:13.947Z,5.20
2018-08-16T00:36:42.297Z,5.50
2018-08-16T00:39:11.265Z,5.80
2018-08-16T00:41:39.733Z,4.83
2018-08-16T00:44:08.165Z,5.20
2018-08-16T00:46:36.539Z,5.30
2018-08-16T00:49:04.909Z,4.70
2018-08-16T00:51:33.330Z,4.57
2018-08-16T00:54:01.682Z,6.17
2018-08-16T00:56:30.201Z,5.70
2018-08-16T00:58:58.619Z,6.83
2018-08-16T01:01:26.981Z,5.33
2018-08-16T01:03:55.437Z,5.50
2018-08-16T01:06:23.811Z,5.13
2018-08-16T01:08:52.231Z,4.87
2018-08-16T01:11:20.643Z,5.40
2018-08-16T01:13:49.115Z,5.30
2018-08-16T01:16:17.514Z,5.00
2018-08-16T01:18:45.943Z,5.27
2018-08-16T01:21:14.428Z,6.03
2018-08-16T01:23:42.845Z,5.73
2018-08-16T01:26:11.243Z,5.60
2018-08-16T01:28:39.599Z,5.30
2018-08-16T01:31:07.955Z,5.87
2018-08-16T01:33:36.373Z,5.50
2018-08-16T01:36:04.820Z,6.20
2018-08-16T01:38:33.228Z,6.97
2018-08-16T01:41:01.654Z,6.10
2018-08-16T01:43:30.084Z,6.00
2018-08-16T01:45:58.462Z,6.30
2018-08-16T01:48:26.973Z,5.80
2018-08-16T01:50:55.425Z,6.07
2018-08-16T01:53:23.830Z,5.47
2018-08-16T01:55:52.386Z,6.23
2018-08-16T01:58:20.845Z,5.97
2018-08-16T02:00:49.246Z,6.00
2018-08-16T02:03:17.703Z,5.97
2018-08-16T02:05:46.093Z,6.23
2018-08-16T02:08:14.508Z,5.70
2018-08-16T02:10:42.873Z,6.17
2018-08-16T02:13:11.331Z,6.17
2018-08-16T02:15:56.430Z,6.30
2018-08-16T02:18:24.804Z,6.20
2018-08-16T02:20:53.197Z,7.03
2018-08-16T02:23:21.577Z,5.40
2018-08-16T02:25:49.952Z,5.93
2018-08-16T02:28:18.327Z,5.93
2018-08-16T02:30:46.719Z,6.00
2018-08-16T02:33:15.054Z,6.53
2018-08-16T02:35:43.405Z,5.30
2018-08-16T02:38:11.848Z,5.43
2018-08-16T02:40:40.366Z,6.30
2018-08-16T02:43:08.803Z,5.07
2018-08-16T02:45:37.257Z,6.20
2018-08-16T02:48:05.945Z,6.30
2018-08-16T02:50:34.413Z,5.60
2018-08-16T02:53:02.891Z,5.00
2018-08-16T02:55:31.373Z,4.83
2018-08-16T02:57:59.809Z,5.77
2018-08-16T03:00:28.175Z,5.53
2018-08-16T03:02:56.562Z,5.13
2018-08-16T03:05:24.956Z,5.60
2018-08-16T03:07:53.290Z,6.13
2018-08-16T03:10:21.598Z,5.90
2018-08-16T03:12:50.031Z,6.00
2018-08-16T03:15:18.359Z,6.30
2018-08-16T03:17:46.841Z,5.90
2018-08-16T03:20:15.255Z,5.53
2018-08-16T03:22:43.594Z,5.40
2018-08-16T03:25:11.982Z,5.73
2018-08-16T03:27:40.350Z,6.23
2018-08-16T03:30:08.749Z,6.57
2018-08-16T03:32:37.182Z,5.80
2018-08-16T03:35:06.237Z,6.10
2018-08-16T03:37:34.608Z,5.50
2018-08-16T03:40:03.075Z,7.37
2018-08-16T03:42:31.520Z,6.50
2018-08-16T03:44:59.882Z,6.00
2018-08-16T03:47:28.335Z,5.73
2018-08-16T03:49:56.798Z,6.10
2018-08-16T03:52:25.265Z,6.33
2018-08-16T03:54:53.684Z,5.83
2018-08-16T03:57:22.121Z,5.60
2018-08-16T03:59:50.483Z,4.70
2018-08-16T04:02:18.909Z,6.13
2018-08-16T04:04:47.248Z,5.53
2018-08-16T04:07:15.662Z,5.80
2018-08-16T04:09:44.017Z,5.30
2018-08-16T04:12:12.442Z,5.47
2018-08-16T04:14:40.796Z,6.50
2018-08-16T04:17:09.462Z,6.20
2018-08-16T04:19:37.967Z,6.30
2018-08-16T04:22:06.405Z,6.17
2018-08-16T04:24:34.827Z,6.47
2018-08-16T04:27:03.257Z,5.73
2018-08-16T04:29:31.551Z,5.27
2018-08-16T04:32:00.018Z,5.40
2018-08-16T04:34:28.394Z,5.53
2018-08-16T04:36:56.812Z,6.07
2018-08-16T04:39:25.163Z,6.03
2018-08-16T04:41:53.540Z,6.13
2018-08-16T04:44:21.869Z,6.50
2018-08-16T04:46:50.292Z,5.70
2018-08-16T04:49:18.724Z,6.13
2018-08-16T04:51:47.227Z,5.80
2018-08-16T04:54:15.650Z,6.10
2018-08-16T04:56:44.152Z,6.10
2018-08-16T04:59:12.556Z,6.33
2018-08-16T05:01:40.969Z,5.83
2018-08-16T05:04:09.322Z,6.40
2018-08-16T05:06:37.708Z,6.07
2018-08-16T05:09:08.609Z,5.87
2018-08-16T05:11:37.204Z,6.20
2018-08-16T05:14:05.800Z,5.53
2018-08-16T05:16:34.224Z,5.40
2018-08-16T05:19:02.637Z,5.30
2018-08-16T05:21:30.992Z,6.43
2018-08-16T05:23:59.421Z,5.10
2018-08-16T05:26:27.804Z,5.00
2018-08-16T05:28:56.246Z,5.57
2018-08-16T05:31:24.721Z,5.03
2018-08-16T05:33:53.140Z,4.83
2018-08-16T05:36:21.469Z,5.47
2018-08-16T05:38:49.870Z,5.20
2018-08-16T05:41:18.194Z,4.70
2018-08-16T05:43:46.658Z,4.40
2018-08-16T05:46:15.038Z,4.20
2018-08-16T05:48:43.414Z,4.47
2018-08-16T05:51:11.845Z,4.23
2018-08-16T05:53:40.237Z,4.80
2018-08-16T05:56:08.782Z,4.53
2018-08-16T05:58:37.286Z,5.23
2018-08-16T06:01:05.829Z,7.07
2018-08-16T06:03:34.387Z,6.20
2018-08-16T06:06:03.043Z,8.30
2018-08-16T06:08:31.459Z,4.00
2018-08-16T06:10:59.877Z,4.60
2018-08-16T06:13:28.281Z,4.20
2018-08-16T06:15:56.688Z,3.60
2018-08-16T06:18:25.146Z,3.90
2018-08-16T06:20:53.562Z,3.57
2018-08-16T06:23:22.003Z,3.77
2018-08-16T06:25:50.476Z,3.47
2018-08-16T06:28:18.888Z,3.20
2018-08-16T06:30:48.082Z,2.70
2018-08-16T06:33:16.487Z,3.57
2018-08-16T06:35:44.956Z,2.83
2018-08-16T06:38:13.560Z,3.40
2018-08-16T06:40:41.973Z,4.23
2018-08-16T06:43:10.435Z,2.90
2018-08-16T06:45:39.165Z,3.00
2018-08-16T06:48:07.806Z,4.07
2018-08-16T06:50:36.669Z,7.03
2018-08-16T06:53:05.157Z,2.90
2018-08-16T06:55:33.531Z,3.20
2018-08-16T06:58:01.880Z,2.73
2018-08-16T07:00:30.326Z,3.63
2018-08-16T07:02:58.706Z,5.43
2018-08-16T07:05:27.056Z,3.00
2018-08-16T07:07:55.463Z,2.60
2018-08-16T07:10:23.912Z,3.20
2018-08-16T07:12:52.287Z,3.00
2018-08-16T07:15:20.707Z,2.77
2018-08-16T07:17:49.123Z,3.33
2018-08-16T07:20:17.608Z,3.70
2018-08-16T07:22:45.995Z,2.90
2018-08-16T07:25:14.466Z,4.90
2018-08-16T07:27:42.883Z,2.97
2018-08-16T07:30:11.313Z,2.80
2018-08-16T07:32:40.205Z,3.23
2018-08-16T07:35:09.352Z,2.93
2018-08-16T07:37:37.874Z,2.80
2018-08-16T07:40:07.028Z,2.97
2018-08-16T07:42:35.516Z,2.50
2018-08-16T07:45:06.313Z,2.97
2018-08-16T07:47:34.778Z,2.80
2018-08-16T07:50:03.269Z,3.77
2018-08-16T07:52:31.729Z,2.87
2018-08-16T07:55:00.207Z,2.73
2018-08-16T07:57:28.680Z,2.73
2018-08-16T07:59:57.930Z,2.80
2018-08-16T08:02:26.308Z,3.07
2018-08-16T08:04:55.064Z,2.63
2018-08-16T08:07:23.744Z,4.57
2018-08-16T08:09:54.880Z,3.20
2018-08-16T08:12:24.221Z,2.53
2018-08-16T08:14:52.645Z,2.27
2018-08-16T08:17:21.085Z,2.20
2018-08-16T08:19:49.654Z,2.80
2018-08-16T08:22:18.062Z,2.90
2018-08-16T08:24:46.462Z,2.93
2018-08-16T08:27:14.913Z,3.23
2018-08-16T08:29:43.322Z,2.80
2018-08-16T08:32:11.675Z,2.53
2018-08-16T08:34:40.076Z,2.80
2018-08-16T08:37:19.739Z,2.80
2018-08-16T08:39:48.201Z,3.07
2018-08-16T08:42:16.660Z,2.50
2018-08-16T08:44:45.066Z,2.23
2018-08-16T08:47:13.805Z,3.00
2018-08-16T08:49:42.369Z,2.60
2018-08-16T08:52:10.852Z,3.30
2018-08-16T08:54:52.815Z,3.17
2018-08-16T08:57:33.297Z,2.60
2018-08-16T09:00:01.773Z,3.00
2018-08-16T09:02:30.233Z,3.53
2018-08-16T09:04:58.911Z,2.93
2018-08-16T09:07:27.290Z,2.77
2018-08-16T09:11:12.335Z,3.10
2018-08-16T09:13:53.911Z,2.90
2018-08-16T09:16:30.300Z,3.80
2018-08-16T09:18:59.041Z,2.13
2018-08-16T09:21:28.137Z,2.60
2018-08-16T09:23:56.590Z,3.10
2018-08-16T09:26:30.363Z,4.53
2018-08-16T09:28:58.860Z,2.53
2018-08-16T09:31:38.669Z,2.83
2018-08-16T09:34:19.509Z,2.80
2018-08-16T09:36:47.976Z,2.40
2018-08-16T09:39:16.504Z,2.63
2018-08-16T09:41:44.996Z,2.83
2018-08-16T09:44:13.429Z,2.80
2018-08-16T09:47:51.733Z,2.60
2018-08-16T09:50:20.147Z,2.70
2018-08-16T09:52:48.587Z,2.70
2018-08-16T09:55:17.001Z,3.40
2018-08-16T09:57:45.494Z,2.60
2018-08-16T10:00:14.007Z,2.57
2018-08-16T10:02:42.357Z,2.70
2018-08-16T10:05:10.921Z,3.43
2018-08-16T10:07:39.354Z,2.97
2018-08-16T10:10:07.748Z,2.80
2018-08-16T10:12:36.942Z,3.23
2018-08-16T10:15:05.722Z,2.77
2018-08-16T10:17:34.069Z,3.17
2018-08-16T10:20:02.483Z,2.50
2018-08-16T10:22:30.914Z,2.37
2018-08-16T10:24:59.343Z,3.20
2018-08-16T10:27:27.823Z,4.07
2018-08-16T10:30:00.729Z,2.50
2018-08-16T10:32:29.197Z,2.40
2018-08-16T10:34:57.621Z,2.50
2018-08-16T10:37:25.979Z,2.57
2018-08-16T10:39:54.516Z,2.77
2018-08-16T10:42:22.927Z,3.37
2018-08-16T10:44:51.293Z,2.83
2018-08-16T10:47:20.139Z,2.47
2018-08-16T10:49:48.559Z,2.47
2018-08-16T10:52:16.929Z,2.70
2018-08-16T10:54:45.246Z,2.53
2018-08-16T10:57:13.561Z,2.67
2018-08-16T10:59:42.024Z,2.90
2018-08-16T11:02:10.674Z,2.67
2018-08-16T11:04:39.116Z,2.30
2018-08-16T11:07:07.578Z,2.60
2018-08-16T11:09:36.011Z,2.40
2018-08-16T11:12:04.748Z,2.90
2018-08-16T11:14:33.109Z,2.67
2018-08-16T11:17:01.530Z,3.07
2018-08-16T11:19:29.950Z,2.93
2018-08-16T11:21:58.386Z,2.70
2018-08-16T11:24:26.745Z,2.40
2018-08-16T11:26:55.079Z,2.43
2018-08-16T11:29:23.524Z,4.80
2018-08-16T11:31:51.885Z,2.90
2018-08-16T11:34:20.267Z,3.20
2018-08-16T11:36:48.663Z,2.70
2018-08-16T11:39:18.141Z,3.33
2018-08-16T11:41:46.633Z,4.20
2018-08-16T11:44:15.111Z,3.50
2018-08-16T11:46:43.627Z,2.57
2018-08-16T11:49:12.050Z,2.70
2018-08-16T11:51:40.585Z,2.70
2018-08-16T11:54:09.099Z,2.20
2018-08-16T11:56:37.488Z,2.60
2018-08-16T11:59:05.936Z,2.50
2018-08-16T12:01:34.383Z,3.43
2018-08-16T12:04:02.860Z,3.23
2018-08-16T12:06:31.423Z,2.80
2018-08-16T12:08:59.945Z,3.33
2018-08-16T12:11:28.391Z,2.93
2018-08-16T12:13:56.809Z,3.30
2018-08-16T12:16:25.361Z,3.40
2018-08-16T12:18:53.861Z,3.00
2018-08-16T12:21:22.379Z,2.93
2018-08-16T12:23:50.705Z,3.10
2018-08-16T12:26:19.230Z,4.53
2018-08-16T12:28:47.578Z,3.50
2018-08-16T12:31:16.295Z,3.00
2018-08-16T12:33:44.881Z,2.90
2018-08-16T12:36:13.501Z,2.63
2018-08-16T12:38:42.005Z,2.80
2018-08-16T12:41:10.428Z,2.90
2018-08-16T12:43:38.878Z,3.07
2018-08-16T12:46:07.309Z,5.07
2018-08-16T12:48:35.701Z,3.00
2018-08-16T12:51:04.144Z,3.60
2018-08-16T12:53:32.674Z,3.27
2018-08-16T12:56:01.147Z,2.70
2018-08-16T12:58:29.549Z,4.73
2018-08-16T13:00:57.867Z,2.47
2018-08-16T13:03:26.251Z,2.33
2018-08-16T13:05:54.677Z,2.50
2018-08-16T13:08:23.055Z,2.50
2018-08-16T13:10:51.450Z,2.40
2018-08-16T13:13:19.912Z,2.63
2018-08-16T13:15:48.268Z,2.47
2018-08-16T13:18:16.664Z,3.50
2018-08-16T13:20:45.725Z,2.30
2018-08-16T13:23:14.207Z,2.67
2018-08-16T13:25:42.638Z,2.67
2018-08-16T13:28:11.011Z,3.73
2018-08-16T13:30:39.441Z,2.50
2018-08-16T13:33:07.943Z,3.07
2018-08-16T13:35:36.304Z,2.63
2018-08-16T13:38:04.989Z,2.80
2018-08-16T13:40:33.315Z,2.87
2018-08-16T13:43:01.671Z,2.73
2018-08-16T13:45:30.122Z,2.63
2018-08-16T13:47:58.550Z,2.70
2018-08-16T13:50:26.962Z,2.87
2018-08-16T13:52:55.332Z,2.90
2018-08-16T13:55:23.743Z,2.43
2018-08-16T13:57:52.212Z,2.13
2018-08-16T14:00:20.641Z,2.50
2018-08-16T14:02:49.067Z,2.23
2018-08-16T14:05:17.442Z,2.23
2018-08-16T14:07:45.795Z,2.53
2018-08-16T14:10:14.236Z,2.60
2018-08-16T14:12:42.676Z,2.20
2018-08-16T14:15:11.163Z,2.43
2018-08-16T14:17:39.579Z,2.17
2018-08-16T14:20:08.580Z,2.67
2018-08-16T14:22:37.014Z,2.27
2018-08-16T14:25:06.191Z,2.53
2018-08-16T14:27:34.689Z,2.23
2018-08-16T14:30:03.051Z,2.10
2018-08-16T14:32:31.552Z,5.43
2018-08-16T14:35:00.031Z,2.13
2018-08-16T14:37:28.473Z,2.13
2018-08-16T14:39:56.846Z,3.00
2018-08-16T14:42:25.359Z,2.20
2018-08-16T14:44:53.754Z,2.43
2018-08-16T14:47:22.407Z,2.80
2018-08-16T14:49:50.863Z,2.37
2018-08-16T14:52:19.199Z,2.87
2018-08-16T14:54:47.586Z,2.87
2018-08-16T14:57:16.076Z,2.53
2018-08-16T14:59:44.582Z,2.10
2018-08-16T15:02:13.120Z,2.73
2018-08-16T15:04:41.497Z,3.20
2018-08-16T15:07:09.919Z,2.40
2018-08-16T15:09:38.265Z,2.10
2018-08-16T15:12:07.144Z,2.33
2018-08-16T15:14:35.925Z,2.70
2018-08-16T15:17:04.595Z,6.00
2018-08-16T15:19:33.051Z,2.13
2018-08-16T15:22:01.413Z,2.33
2018-08-16T15:24:29.767Z,2.13
2018-08-16T15:26:58.174Z,2.63
2018-08-16T15:29:26.671Z,2.50
2018-08-16T15:31:54.973Z,2.57
2018-08-16T15:34:23.366Z,2.33
2018-08-16T15:36:51.728Z,2.23
2018-08-16T15:39:20.697Z,2.93
2018-08-16T15:41:49.074Z,3.07
2018-08-16T15:44:17.463Z,2.63
2018-08-16T15:46:45.921Z,2.57
2018-08-16T15:49:14.333Z,3.17
2018-08-16T15:51:42.841Z,3.00
2018-08-16T15:54:11.277Z,3.23
2018-08-16T15:56:39.714Z,2.67
2018-08-16T15:59:08.461Z,2.90
2018-08-16T16:01:36.784Z,3.10
2018-08-16T16:04:05.270Z,2.60
2018-08-16T16:06:33.667Z,2.20
2018-08-16T16:09:02.073Z,2.40
2018-08-16T16:11:30.489Z,3.10
2018-08-16T16:13:58.891Z,2.70
2018-08-16T16:16:27.279Z,2.60
2018-08-16T16:18:55.688Z,2.40
2018-08-16T16:21:24.129Z,2.80
2018-08-16T16:23:52.557Z,3.00
2018-08-16T16:26:20.950Z,3.03
2018-08-16T16:28:49.352Z,3.00
2018-08-16T16:31:17.734Z,3.57
2018-08-16T16:33:46.125Z,3.03
2018-08-16T16:36:14.505Z,2.60
2018-08-16T16:38:42.996Z,2.80
2018-08-16T16:41:11.375Z,3.50
2018-08-16T16:43:39.819Z,3.40
2018-08-16T16:46:08.239Z,3.00
2018-08-16T16:48:36.723Z,3.00
2018-08-16T16:51:05.171Z,2.80
2018-08-16T16:53:33.649Z,3.07
2018-08-16T16:56:20.006Z,3.17
2018-08-16T16:58:49.034Z,3.67
2018-08-16T17:01:17.513Z,4.00
2018-08-16T17:03:46.032Z,4.43
2018-08-16T17:06:14.447Z,4.37
2018-08-16T17:08:42.885Z,4.60
2018-08-16T17:11:11.233Z,3.53
2018-08-16T17:13:39.727Z,3.33
2018-08-16T17:16:08.211Z,4.77
2018-08-16T17:18:36.632Z,3.30
2018-08-16T17:21:05.055Z,3.17
2018-08-16T17:23:33.447Z,3.13
2018-08-16T17:26:01.994Z,3.63
2018-08-16T17:28:30.364Z,3.10
2018-08-16T17:30:58.713Z,3.47
2018-08-16T17:33:27.134Z,3.30
2018-08-16T17:35:55.562Z,3.20
2018-08-16T17:38:23.966Z,3.60
2018-08-16T17:40:59.112Z,3.50
2018-08-16T17:43:27.398Z,4.47
2018-08-16T17:45:55.758Z,3.80
2018-08-16T17:48:24.185Z,3.60
2018-08-16T17:50:52.730Z,3.20
2018-08-16T17:53:21.117Z,3.40
2018-08-16T17:55:49.647Z,3.50
2018-08-16T17:58:17.997Z,3.17
2018-08-16T18:00:46.411Z,3.77
2018-08-16T18:03:14.729Z,4.03
2018-08-16T18:05:43.125Z,3.33
2018-08-16T18:08:11.739Z,3.70
2018-08-16T18:10:40.200Z,4.07
2018-08-16T18:13:08.584Z,4.40
2018-08-16T18:15:36.985Z,5.20
2018-08-16T18:18:05.326Z,3.53
2018-08-16T18:20:33.692Z,4.17
2018-08-16T18:23:02.041Z,3.80
2018-08-16T18:25:30.464Z,3.47
2018-08-16T18:27:59.016Z,4.10
2018-08-16T18:30:27.483Z,4.00
2018-08-16T18:32:55.997Z,3.90
2018-08-16T18:35:24.428Z,4.13
2018-08-16T18:37:52.838Z,3.23
2018-08-16T18:40:21.158Z,4.00
2018-08-16T18:42:49.639Z,5.27
2018-08-16T18:45:18.083Z,3.60
2018-08-16T18:47:47.003Z,4.27
2018-08-16T18:50:15.397Z,4.00
2018-08-16T18:52:43.911Z,4.80
2018-08-16T18:55:13.787Z,4.10
2018-08-16T18:57:42.402Z,4.57
2018-08-16T19:00:10.964Z,4.77
2018-08-16T19:02:39.398Z,3.80
2018-08-16T19:05:08.026Z,4.53
2018-08-16T19:07:36.610Z,4.40
2018-08-16T19:10:05.955Z,4.87
2018-08-16T19:12:34.376Z,4.93
2018-08-16T19:15:02.881Z,4.80
2018-08-16T19:17:31.341Z,4.73
2018-08-16T19:19:59.794Z,5.80
2018-08-16T19:22:28.308Z,5.00
2018-08-16T19:24:56.782Z,4.73
2018-08-16T19:27:25.214Z,5.67
2018-08-16T19:29:53.856Z,5.90
2018-08-16T19:32:22.222Z,4.83
2018-08-16T19:34:50.757Z,5.43
2018-08-16T19:37:19.511Z,5.27
2018-08-16T19:39:47.909Z,4.90
2018-08-16T19:42:16.392Z,5.57
2018-08-16T19:44:44.841Z,5.60
2018-08-16T19:47:13.339Z,5.17
2018-08-16T19:49:42.167Z,5.70
2018-08-16T19:52:10.539Z,5.23
2018-08-16T19:54:38.958Z,5.37
2018-08-16T19:57:07.829Z,5.23
2018-08-16T19:59:36.244Z,5.60
2018-08-16T20:02:04.627Z,5.77
2018-08-16T20:04:33.015Z,5.67
2018-08-16T20:07:01.347Z,6.03
2018-08-16T20:09:29.694Z,6.23
2018-08-16T20:11:58.302Z,6.37
2018-08-16T20:14:26.701Z,6.07
2018-08-16T20:16:55.095Z,6.80
2018-08-16T20:19:23.441Z,6.97
2018-08-16T20:21:51.929Z,7.97
2018-08-16T20:24:20.355Z,6.40
2018-08-16T20:26:48.845Z,7.60
2018-08-16T20:29:17.210Z,7.47
2018-08-16T20:31:45.548Z,7.07
2018-08-16T20:34:13.994Z,6.30
2018-08-16T20:36:42.455Z,7.40
2018-08-16T20:39:10.945Z,6.97
2018-08-16T20:41:39.445Z,6.40
2018-08-16T20:44:08.401Z,7.90
2018-08-16T20:46:36.843Z,6.97
2018-08-16T20:49:05.397Z,7.77
2018-08-16T20:51:33.708Z,8.37
2018-08-16T20:54:02.287Z,7.70
2018-08-16T20:56:30.688Z,7.23
2018-08-16T20:58:59.069Z,6.63
2018-08-16T21:01:27.445Z,6.83
2018-08-16T21:03:55.927Z,6.27
2018-08-16T21:06:24.430Z,7.30
2018-08-16T21:08:52.786Z,6.53
2018-08-16T21:11:21.173Z,6.57
2018-08-16T21:13:49.624Z,7.10
2018-08-16T21:16:18.011Z,6.60
2018-08-16T21:18:46.381Z,6.90
2018-08-16T21:21:14.836Z,6.10
2018-08-16T21:23:43.265Z,6.83
2018-08-16T21:26:11.817Z,6.37
2018-08-16T21:28:40.216Z,6.80
2018-08-16T21:31:08.568Z,6.40
2018-08-16T21:33:37.034Z,7.03
2018-08-16T21:36:05.439Z,7.20
2018-08-16T21:38:33.880Z,6.30
2018-08-16T21:41:02.328Z,6.80
2018-08-16T21:43:30.699Z,6.80
2018-08-16T21:45:59.131Z,8.23
2018-08-16T21:48:27.522Z,6.90
2018-08-16T21:50:55.972Z,6.60
2018-08-16T21:53:24.413Z,6.10
2018-08-16T21:55:52.767Z,6.83
2018-08-16T21:58:21.130Z,7.60
2018-08-16T22:00:56.323Z,9.83
2018-08-16T22:03:27.091Z,7.23
2018-08-16T22:06:03.687Z,7.33
2018-08-16T22:08:38.318Z,7.30
2018-08-16T22:11:07.212Z,7.60
2018-08-16T22:13:36.075Z,7.00
2018-08-16T22:16:04.808Z,6.90
2018-08-16T22:18:33.484Z,6.97
2018-08-16T22:21:01.954Z,6.33
2018-08-16T22:23:30.312Z,7.10
2018-08-16T22:25:58.706Z,6.23
2018-08-16T22:28:27.155Z,6.77
2018-08-16T22:30:55.513Z,6.40
2018-08-16T22:33:23.846Z,6.83
2018-08-16T22:35:52.236Z,6.80
2018-08-16T22:38:20.671Z,7.77
2018-08-16T22:40:49.123Z,6.53
2018-08-16T22:43:17.635Z,7.20
2018-08-16T22:45:46.131Z,7.67
2018-08-16T22:48:14.632Z,6.80
2018-08-16T22:50:43.008Z,7.27
2018-08-16T22:53:11.471Z,7.47
2018-08-16T22:55:39.881Z,6.87
2018-08-16T22:58:08.303Z,6.80
2018-08-16T23:00:36.843Z,8.03
2018-08-16T23:03:05.469Z,7.17
2018-08-16T23:05:33.907Z,7.50
2018-08-16T23:08:02.477Z,7.17
2018-08-16T23:10:30.894Z,6.83
2018-08-16T23:12:59.315Z,7.60
2018-08-16T23:15:27.721Z,7.17
2018-08-16T23:17:56.187Z,6.97
2018-08-16T23:20:24.510Z,7.17
2018-08-16T23:22:52.885Z,7.43
2018-08-16T23:25:21.240Z,8.23
2018-08-16T23:27:49.596Z,7.77
2018-08-16T23:30:18.082Z,7.20
2018-08-16T23:32:46.473Z,7.40
2018-08-16T23:35:14.993Z,6.83
2018-08-16T23:37:43.568Z,8.47
2018-08-16T23:40:13.341Z,6.97
2018-08-16T23:42:42.107Z,8.23
2018-08-16T23:45:11.198Z,7.27
2018-08-16T23:47:39.623Z,6.67
2018-08-16T23:50:10.441Z,7.57
2018-08-16T23:52:38.854Z,7.33
2018-08-16T23:55:08.371Z,7.63
2018-08-16T23:57:36.789Z,7.43
